Time;durP1;ratioP1;P1;durP2;ratioP2;P2;SDS_P1;SDS_P2;PMS_P1;PMS_P2;Temp;Humidity;BMP_temperature;BMP_pressure;BME280_temperature;BME280_humidity;BME280_pressure;Samples;Min_cycle;Max_cycle;Signal;HPM_P1;HPM_P2
2021/09/02 00:00:08;;;;;;;14.70;10.23;;;;;;;12.26;100.00;96763.63;1044226;28;20559;-75
2021/09/02 00:00:38;;;;;;;14.32;9.60;;;;;;;12.25;100.00;96762.03;1036060;28;20399;-75
2021/09/02 00:01:09;;;;;;;15.20;10.53;;;;;;;12.22;100.00;96759.84;1040082;28;20025;-75
2021/09/02 00:01:39;;;;;;;17.00;10.30;;;;;;;12.23;100.00;96758.78;1036186;28;20021;-74
2021/09/02 00:02:10;;;;;;;18.40;10.53;;;;;;;12.26;100.00;96758.28;1036104;28;20014;-75
2021/09/02 00:02:40;;;;;;;13.90;9.67;;;;;;;12.28;100.00;96766.84;1040015;28;20061;-74
2021/09/02 00:03:10;;;;;;;16.40;10.10;;;;;;;12.30;100.00;96758.56;1040179;28;20087;-74
2021/09/02 00:03:41;;;;;;;13.30;9.37;;;;;;;12.31;100.00;96760.16;1039713;28;20390;-75
2021/09/02 00:04:11;;;;;;;15.63;10.30;;;;;;;12.28;100.00;96758.00;1040162;28;20398;-75
2021/09/02 00:04:42;;;;;;;15.43;9.80;;;;;;;12.27;100.00;96759.88;1039988;28;20513;-75
2021/09/02 00:05:12;;;;;;;16.63;9.97;;;;;;;12.27;100.00;96757.19;1043713;28;20005;-75
2021/09/02 00:05:43;;;;;;;19.10;10.50;;;;;;;12.25;100.00;96759.34;1044218;28;20401;-75
2021/09/02 00:06:13;;;;;;;12.93;8.90;;;;;;;12.27;100.00;96757.19;1048376;28;20409;-75
2021/09/02 00:06:43;;;;;;;14.77;9.87;;;;;;;12.28;100.00;96758.00;1048223;28;20029;-74
2021/09/02 00:07:14;;;;;;;15.23;9.67;;;;;;;12.25;100.00;96756.66;1040106;28;20096;-75
2021/09/02 00:07:44;;;;;;;19.20;9.87;;;;;;;12.22;100.00;96755.31;1044173;28;20401;-75
2021/09/02 00:08:15;;;;;;;18.97;10.63;;;;;;;12.14;100.00;96758.50;1044204;28;20031;-75
2021/09/02 00:08:45;;;;;;;13.63;9.97;;;;;;;12.13;100.00;96758.72;1044079;28;20047;-75
2021/09/02 00:09:16;;;;;;;18.53;10.23;;;;;;;12.11;100.00;96753.66;1048260;28;20028;-75
2021/09/02 00:09:46;;;;;;;16.00;10.03;;;;;;;12.12;100.00;96754.44;1048247;28;20029;-75
2021/09/02 00:10:17;;;;;;;16.23;10.33;;;;;;;12.10;100.00;96753.91;1044192;28;20017;-76
2021/09/02 00:10:47;;;;;;;14.87;10.20;;;;;;;12.09;100.00;96755.00;1040041;28;20021;-75
2021/09/02 00:11:18;;;;;;;14.13;10.10;;;;;;;12.07;100.00;96749.88;1044158;28;20478;-75
2021/09/02 00:11:48;;;;;;;15.07;10.30;;;;;;;12.07;100.00;96746.38;1033407;28;20521;-75
2021/09/02 00:12:19;;;;;;;15.93;9.97;;;;;;;12.09;100.00;96752.31;1031971;28;20376;-75
2021/09/02 00:12:49;;;;;;;16.77;10.60;;;;;;;12.09;100.00;96747.75;1035883;28;20129;-74
2021/09/02 00:13:20;;;;;;;14.17;10.10;;;;;;;12.09;100.00;96746.94;1035810;28;20514;-75
2021/09/02 00:13:50;;;;;;;14.17;9.93;;;;;;;12.09;100.00;96746.94;1040138;28;20021;-74
2021/09/02 00:14:21;;;;;;;17.33;10.90;;;;;;;12.07;100.00;96751.75;1044477;28;20021;-75
2021/09/02 00:14:51;;;;;;;15.93;10.13;;;;;;;12.08;100.00;96739.94;1044447;28;20405;-75
2021/09/02 00:15:21;;;;;;;14.70;9.60;;;;;;;12.08;100.00;96738.09;1044213;28;20028;-75
2021/09/02 00:15:52;;;;;;;16.03;10.27;;;;;;;12.10;100.00;96737.84;1035870;28;20036;-74
2021/09/02 00:16:22;;;;;;;15.03;10.23;;;;;;;12.08;100.00;96726.56;1031930;28;20022;-74
2021/09/02 00:16:53;;;;;;;15.37;10.37;;;;;;;12.07;100.00;96733.00;1031890;28;20026;-74
2021/09/02 00:17:23;;;;;;;15.03;9.60;;;;;;;12.08;100.00;96735.44;1031986;28;20025;-74
2021/09/02 00:17:54;;;;;;;15.77;9.97;;;;;;;12.07;100.00;96747.19;1039620;28;20021;-75
2021/09/02 00:18:24;;;;;;;19.83;9.83;;;;;;;12.02;100.00;96733.78;1039961;28;20029;-75
2021/09/02 00:18:54;;;;;;;15.33;10.27;;;;;;;12.01;100.00;96732.16;1035842;28;20030;-75
2021/09/02 00:19:25;;;;;;;16.13;9.90;;;;;;;12.01;100.00;96734.84;1035505;28;20026;-74
2021/09/02 00:19:55;;;;;;;14.47;10.30;;;;;;;11.99;100.00;96741.53;1031695;28;20411;-74
2021/09/02 00:20:27;;;;;;;18.67;11.13;;;;;;;11.97;100.00;96742.59;1032016;28;20105;-74
2021/09/02 00:20:57;;;;;;;15.43;10.13;;;;;;;11.92;100.00;96734.53;1032085;28;20023;-74
2021/09/02 00:21:28;;;;;;;14.87;10.27;;;;;;;11.90;100.00;96743.91;1036186;28;20379;-74
2021/09/02 00:21:58;;;;;;;17.63;10.37;;;;;;;11.88;100.00;96736.13;1035963;28;20459;-74
2021/09/02 00:22:29;;;;;;;13.93;10.27;;;;;;;11.84;100.00;96734.22;1040052;28;20018;-74
2021/09/02 00:22:59;;;;;;;19.73;11.17;;;;;;;11.83;100.00;96737.97;1044132;28;20493;-74
2021/09/02 00:23:30;;;;;;;16.93;11.13;;;;;;;11.79;100.00;96737.66;1043886;28;20013;-75
2021/09/02 00:24:00;;;;;;;19.67;10.60;;;;;;;11.75;100.00;96736.53;1048282;28;20023;-74
2021/09/02 00:24:30;;;;;;;18.83;11.60;;;;;;;11.74;100.00;96731.47;1044149;28;20017;-74
2021/09/02 00:25:01;;;;;;;15.70;10.50;;;;;;;11.71;100.00;96728.22;1039896;28;20012;-73
2021/09/02 00:25:31;;;;;;;21.23;11.23;;;;;;;11.69;100.00;96729.56;1035946;28;20022;-74
2021/09/02 00:26:02;;;;;;;18.63;10.93;;;;;;;11.64;100.00;96724.16;1036046;28;20045;-74
2021/09/02 00:26:32;;;;;;;15.97;11.07;;;;;;;11.62;100.00;96731.66;1040170;28;20041;-74
2021/09/02 00:27:03;;;;;;;18.10;10.67;;;;;;;11.62;100.00;96732.47;1044140;28;20021;-74
2021/09/02 00:27:33;;;;;;;15.80;10.23;;;;;;;11.64;100.00;96729.53;1044497;28;20036;-74
2021/09/02 00:28:04;;;;;;;16.07;10.00;;;;;;;11.64;100.00;96726.84;1044402;28;20405;-74
2021/09/02 00:28:34;;;;;;;16.07;9.90;;;;;;;11.65;100.00;96723.09;1044375;28;20032;-74
2021/09/02 00:29:05;;;;;;;18.40;10.80;;;;;;;11.62;100.00;96735.16;1044126;28;20028;-74
2021/09/02 00:29:35;;;;;;;16.73;10.73;;;;;;;11.63;100.00;96727.91;1040012;28;20018;-74
2021/09/02 00:30:06;;;;;;;13.93;9.80;;;;;;;11.60;100.00;96725.75;1035918;28;20022;-75
2021/09/02 00:30:37;;;;;;;15.73;10.68;;;;;;;11.61;100.00;96727.34;1027969;28;20035;-74
2021/09/02 00:31:07;;;;;;;17.10;11.00;;;;;;;11.61;100.00;96736.19;1032042;28;20059;-74
2021/09/02 00:31:38;;;;;;;16.37;11.50;;;;;;;11.61;100.00;96730.03;1031799;28;20022;-74
2021/09/02 00:32:08;;;;;;;19.43;11.17;;;;;;;11.61;100.00;96727.34;1031862;28;20023;-74
2021/09/02 00:32:38;;;;;;;20.33;11.07;;;;;;;11.61;100.00;96725.47;1035940;28;20463;-74
2021/09/02 00:33:16;;;;;;;16.90;10.23;;;;;;;11.54;100.00;96732.94;1036054;28;20029;-74
2021/09/02 00:33:46;;;;;;;15.35;10.57;;;;;;;11.56;100.00;96736.16;1043032;28;20477;-74
2021/09/02 00:34:16;;;;;;;17.87;10.53;;;;;;;11.54;100.00;96729.47;1044025;28;20036;-74
2021/09/02 00:34:47;;;;;;;14.33;9.83;;;;;;;11.51;100.00;96732.63;1040030;28;20025;-74
2021/09/02 00:35:17;;;;;;;14.93;9.87;;;;;;;11.51;100.00;96727.28;1039931;28;20459;-74
2021/09/02 00:35:48;;;;;;;16.07;10.77;;;;;;;11.45;100.00;96726.44;1035825;28;20021;-74
2021/09/02 00:36:18;;;;;;;15.83;10.20;;;;;;;11.47;100.00;96731.56;1040025;28;20010;-74
2021/09/02 00:36:49;;;;;;;17.00;10.17;;;;;;;11.38;100.00;96725.88;1044135;28;20025;-74
2021/09/02 00:37:19;;;;;;;13.93;9.80;;;;;;;11.43;100.00;96724.03;1044115;28;20044;-74
2021/09/02 00:37:49;;;;;;;14.80;10.47;;;;;;;11.42;100.00;96727.78;1044407;28;20370;-74
2021/09/02 00:38:20;;;;;;;17.63;9.53;;;;;;;11.45;100.00;96721.91;1044352;28;20013;-74
2021/09/02 00:38:50;;;;;;;15.87;9.97;;;;;;;11.43;100.00;96726.72;1044074;28;20377;-74
2021/09/02 00:39:21;;;;;;;12.27;9.47;;;;;;;11.44;100.00;96728.31;1039904;28;20030;-74
2021/09/02 00:39:51;;;;;;;13.20;9.97;;;;;;;11.45;100.00;96727.25;1035912;28;20026;-74
2021/09/02 00:40:22;;;;;;;14.10;9.73;;;;;;;11.41;100.00;96730.69;1035974;28;20451;-74
2021/09/02 00:40:52;;;;;;;15.83;10.40;;;;;;;11.42;100.00;96725.09;1035840;28;20470;-74
2021/09/02 00:41:23;;;;;;;14.90;10.70;;;;;;;11.41;100.00;96720.81;1035971;28;20124;-74
2021/09/02 00:41:53;;;;;;;13.87;9.37;;;;;;;11.44;100.00;96730.19;1036014;28;20102;-73
2021/09/02 00:42:24;;;;;;;14.60;10.33;;;;;;;11.44;100.00;96717.63;1036075;28;20037;-74
2021/09/02 00:42:54;;;;;;;15.23;10.23;;;;;;;11.50;100.00;96725.69;1044086;28;20454;-74
2021/09/02 00:43:26;;;;;;;15.70;10.03;;;;;;;11.45;100.00;96721.91;1043395;28;20033;-74
2021/09/02 00:43:56;;;;;;;13.45;9.75;;;;;;;11.47;100.00;96721.66;1040183;28;20064;-74
2021/09/02 00:44:37;;;;;;;17.03;9.77;;;;;;;11.44;100.00;96728.31;1044114;28;20433;-74
2021/09/02 00:45:07;;;;;;;14.24;9.90;;;;;;;11.47;100.00;96734.25;1040000;28;20443;-74
2021/09/02 00:45:38;;;;;;;15.00;9.63;;;;;;;11.47;100.00;96734.25;1039974;28;20025;-74
2021/09/02 00:46:10;;;;;;;18.73;9.73;;;;;;;11.43;100.00;96725.91;1038539;28;20040;-74
2021/09/02 00:46:40;;;;;;;16.58;10.50;;;;;;;11.47;100.00;96728.88;1040245;28;20449;-73
2021/09/02 00:47:11;;;;;;;14.40;9.77;;;;;;;11.45;100.00;96737.97;1040025;28;20025;-74
2021/09/02 00:47:41;;;;;;;12.60;9.30;;;;;;;11.44;100.00;96736.34;1040018;28;20168;-74
2021/09/02 00:48:12;;;;;;;14.27;10.37;;;;;;;11.44;100.00;96731.00;1039960;28;20490;-74
2021/09/02 00:48:44;;;;;;;15.50;10.10;;;;;;;11.42;100.00;96733.13;1039952;28;20029;-74
2021/09/02 00:49:14;;;;;;;19.02;9.15;;;;;;;11.44;100.00;96735.53;1040275;28;20018;-74
2021/09/02 00:49:45;;;;;;;14.07;9.70;;;;;;;11.45;100.00;96737.16;1040014;28;20029;-74
2021/09/02 00:50:15;;;;;;;14.87;10.50;;;;;;;11.43;100.00;96734.75;1039926;28;20021;-74
2021/09/02 00:50:46;;;;;;;13.70;9.57;;;;;;;11.42;100.00;96737.69;1040065;28;20025;-74
2021/09/02 00:51:18;;;;;;;14.02;9.75;;;;;;;11.43;100.00;96733.94;1036070;28;20022;-74
2021/09/02 00:51:49;;;;;;;13.27;9.80;;;;;;;11.42;100.00;96733.13;1035897;28;20048;-74
2021/09/02 00:52:21;;;;;;;14.30;10.03;;;;;;;11.42;100.00;96726.97;1035932;28;20028;-74
2021/09/02 00:52:51;;;;;;;13.45;9.63;;;;;;;11.41;100.00;96734.22;1032505;28;20062;-74
2021/09/02 00:53:22;;;;;;;14.03;9.83;;;;;;;11.40;100.00;96735.25;1032192;28;20077;-74
2021/09/02 00:53:53;;;;;;;14.73;9.50;;;;;;;11.41;100.00;96730.69;1032000;28;20022;-74
2021/09/02 00:54:24;;;;;;;13.73;10.02;;;;;;;11.40;100.00;96729.09;1032041;28;20045;-74
2021/09/02 00:54:56;;;;;;;16.07;9.77;;;;;;;11.37;100.00;96727.75;1035867;28;20100;-75
2021/09/02 00:55:26;;;;;;;13.75;9.52;;;;;;;11.37;100.00;96727.75;1032559;28;20046;-74
2021/09/02 00:55:57;;;;;;;17.17;10.17;;;;;;;11.37;100.00;96727.75;1035932;28;20033;-73
2021/09/02 00:56:27;;;;;;;14.33;10.10;;;;;;;11.39;100.00;96732.84;1035860;28;20034;-75
2021/09/02 00:56:58;;;;;;;14.47;9.83;;;;;;;11.38;100.00;96732.03;1035889;28;20104;-75
2021/09/02 00:57:29;;;;;;;15.60;9.20;;;;;;;11.39;100.00;96727.47;1039923;28;20501;-75
2021/09/02 00:58:00;;;;;;;14.45;9.32;;;;;;;11.41;100.00;96731.53;1039983;28;20112;-75
2021/09/02 00:58:30;;;;;;;17.23;10.03;;;;;;;11.37;100.00;96725.06;1035771;28;20034;-75
2021/09/02 00:59:01;;;;;;;14.17;9.57;;;;;;;11.38;100.00;96723.19;1027763;28;20030;-75
2021/09/02 00:59:31;;;;;;;14.97;9.70;;;;;;;11.38;100.00;96731.22;1023951;28;20039;-75
2021/09/02 01:00:09;;;;;;;15.33;9.53;;;;;;;11.37;100.00;96727.75;1027885;28;20133;-75
2021/09/02 01:00:39;;;;;;;16.38;10.15;;;;;;;11.36;100.00;96726.13;1033915;28;20026;-75
2021/09/02 01:01:10;;;;;;;13.83;9.47;;;;;;;11.36;100.00;96726.13;1036959;28;20022;-75
2021/09/02 01:01:41;;;;;;;14.10;9.50;;;;;;;11.35;100.00;96729.06;1039917;28;20355;-75
2021/09/02 01:02:11;;;;;;;12.87;9.07;;;;;;;11.36;100.00;96727.97;1035925;28;20014;-75
2021/09/02 01:02:42;;;;;;;14.83;9.97;;;;;;;11.36;100.00;96727.97;1035873;28;20045;-75
2021/09/02 01:03:13;;;;;;;12.80;9.18;;;;;;;11.35;100.00;96731.72;1035811;28;20033;-75
2021/09/02 01:03:44;;;;;;;14.30;10.30;;;;;;;11.35;100.00;96723.69;1038120;28;20092;-75
2021/09/02 01:04:15;;;;;;;13.10;9.57;;;;;;;11.33;100.00;96723.97;1036239;28;20049;-75
2021/09/02 01:04:45;;;;;;;12.73;9.60;;;;;;;11.34;100.00;96727.44;1035856;28;20025;-75
2021/09/02 01:05:16;;;;;;;15.87;10.47;;;;;;;11.32;100.00;96722.34;1031949;28;20082;-75
2021/09/02 01:05:54;;;;;;;13.05;9.45;;;;;;;11.32;100.00;96722.34;1036067;28;20033;-75
2021/09/02 01:06:24;;;;;;;14.63;9.85;;;;;;;11.33;100.00;96732.00;1041043;28;20449;-75
2021/09/02 01:06:55;;;;;;;15.53;10.30;;;;;;;11.33;100.00;96726.63;1036882;28;20014;-75
2021/09/02 01:07:26;;;;;;;14.93;9.73;;;;;;;11.34;100.00;96730.13;1039961;28;20017;-75
2021/09/02 01:07:57;;;;;;;13.50;9.80;;;;;;;11.30;100.00;96729.81;1035810;28;20108;-75
2021/09/02 01:08:28;;;;;;;15.00;10.02;;;;;;;11.30;100.00;96721.78;1032377;28;20026;-75
2021/09/02 01:08:59;;;;;;;14.23;9.87;;;;;;;11.29;100.00;96730.88;1035783;28;20022;-75
2021/09/02 01:09:29;;;;;;;13.43;8.97;;;;;;;11.27;100.00;96725.00;1032017;28;20018;-75
2021/09/02 01:10:00;;;;;;;12.90;9.70;;;;;;;11.28;100.00;96725.81;1027845;28;20492;-76
2021/09/02 01:10:30;;;;;;;14.97;9.73;;;;;;;11.28;100.00;96721.25;1031559;28;20034;-76
2021/09/02 01:11:01;;;;;;;18.00;9.93;;;;;;;11.29;100.00;96722.06;1031762;28;20027;-75
2021/09/02 01:11:31;;;;;;;15.63;9.77;;;;;;;11.28;100.00;96721.25;1031945;28;20041;-75
2021/09/02 01:12:24;;;;;;;12.83;9.50;;;;;;;11.27;100.00;96722.31;1035753;28;20026;-75
2021/09/02 01:12:55;;;;;;;13.05;9.07;;;;;;;11.29;100.00;96728.22;1035835;28;20521;-75
2021/09/02 01:13:25;;;;;;;15.40;9.37;;;;;;;11.31;100.00;96728.78;1035806;28;20076;-75
2021/09/02 01:13:56;;;;;;;14.23;9.53;;;;;;;11.33;100.00;96732.00;1042121;28;20025;-75
2021/09/02 01:14:26;;;;;;;12.20;8.70;;;;;;;11.32;100.00;96725.03;1044080;28;20497;-75
2021/09/02 01:15:09;;;;;;;16.43;9.17;;;;;;;11.29;100.00;96720.19;1039840;28;20478;-75
2021/09/02 01:15:40;;;;;;;17.70;9.45;;;;;;;11.30;100.00;96721.78;1044022;28;20530;-75
2021/09/02 01:16:10;;;;;;;12.80;9.07;;;;;;;11.33;100.00;96723.16;1035813;28;20030;-75
2021/09/02 01:16:40;;;;;;;11.97;8.93;;;;;;;11.34;100.00;96719.41;1033406;28;20120;-74
2021/09/02 01:17:11;;;;;;;16.80;9.00;;;;;;;11.36;100.00;96722.63;1035856;28;20033;-73
2021/09/02 01:17:43;;;;;;;16.40;9.57;;;;;;;11.36;100.00;96720.78;1031862;28;20034;-73
2021/09/02 01:18:13;;;;;;;14.40;9.70;;;;;;;11.36;100.00;96719.94;1031927;28;20029;-74
2021/09/02 01:18:44;;;;;;;14.30;9.30;;;;;;;11.40;100.00;96721.06;1035827;28;20018;-74
2021/09/02 01:19:16;;;;;;;12.87;9.60;;;;;;;11.41;100.00;96720.81;1032038;28;20070;-74
2021/09/02 01:19:47;;;;;;;12.70;9.52;;;;;;;11.43;100.00;96712.53;1031978;28;20089;-74
2021/09/02 01:20:19;;;;;;;13.40;9.15;;;;;;;11.44;100.00;96714.13;1031742;28;20038;-74
2021/09/02 01:20:50;;;;;;;13.38;9.20;;;;;;;11.47;100.00;96710.97;1028677;28;20043;-74
2021/09/02 01:21:20;;;;;;;13.80;9.30;;;;;;;11.49;100.00;96708.00;1032160;28;20029;-74
2021/09/02 01:21:51;;;;;;;14.73;9.60;;;;;;;11.48;100.00;96717.13;1031778;28;20045;-74
2021/09/02 01:22:26;;;;;;;15.63;9.73;;;;;;;11.47;100.00;96715.50;1031879;28;20026;-74
2021/09/02 01:22:57;;;;;;;12.23;9.18;;;;;;;11.48;100.00;96712.56;1035843;28;20564;-74
2021/09/02 01:23:28;;;;;;;15.38;10.50;;;;;;;11.51;100.00;96708.53;1036669;28;20014;-74
2021/09/02 01:23:58;;;;;;;16.93;10.07;;;;;;;11.47;100.00;96710.97;1035564;28;20041;-74
2021/09/02 01:24:29;;;;;;;14.67;9.77;;;;;;;11.50;100.00;96706.94;1035826;28;20025;-74
2021/09/02 01:25:00;;;;;;;15.17;9.70;;;;;;;11.51;100.00;96719.25;1035869;28;20482;-74
2021/09/02 01:25:35;;;;;;;14.35;9.23;;;;;;;11.51;100.00;96703.19;1027794;28;20038;-74
2021/09/02 01:26:14;;;;;;;14.45;9.02;;;;;;;11.54;100.00;96702.69;1028528;28;20165;-74
2021/09/02 01:26:44;;;;;;;16.77;10.20;;;;;;;11.53;100.00;96703.75;1027802;28;20082;-74
2021/09/02 01:27:15;;;;;;;17.40;9.97;;;;;;;11.55;100.00;96712.31;1027146;28;20477;-74
2021/09/02 01:27:48;;;;;;;13.77;10.03;;;;;;;11.54;100.00;96702.69;1035819;28;20368;-74
2021/09/02 01:28:19;;;;;;;12.80;9.68;;;;;;;11.53;100.00;96704.56;1031747;28;20033;-74
2021/09/02 01:28:49;;;;;;;14.80;10.23;;;;;;;11.57;100.00;96702.19;1028193;28;20412;-74
2021/09/02 01:29:22;;;;;;;14.30;10.10;;;;;;;11.56;100.00;96703.22;1032260;28;20373;-75
2021/09/02 01:29:54;;;;;;;13.38;9.27;;;;;;;11.60;100.00;96701.66;1036119;28;20112;-74
2021/09/02 01:30:25;;;;;;;15.77;10.15;;;;;;;11.56;100.00;96706.72;1036700;28;20033;-74
2021/09/02 01:30:55;;;;;;;18.13;9.57;;;;;;;11.60;100.00;96707.00;1039900;28;20529;-74
2021/09/02 01:31:26;;;;;;;16.03;9.90;;;;;;;11.59;100.00;96706.19;1040175;28;20509;-74
2021/09/02 01:31:57;;;;;;;18.47;10.80;;;;;;;11.56;100.00;96697.88;1040662;28;20156;-74
2021/09/02 01:32:29;;;;;;;20.67;9.90;;;;;;;11.58;100.00;96695.75;1040674;28;20033;-74
2021/09/02 01:32:59;;;;;;;14.75;9.50;;;;;;;11.59;100.00;96697.38;1036573;28;20109;-74
2021/09/02 01:33:30;;;;;;;14.13;9.67;;;;;;;11.62;100.00;96700.34;1036580;28;20029;-74
2021/09/02 01:34:00;;;;;;;16.67;10.23;;;;;;;11.63;100.00;96703.81;1036878;28;20487;-74
2021/09/02 01:34:31;;;;;;;12.40;9.33;;;;;;;11.63;100.00;96701.16;1040703;28;20029;-74
2021/09/02 01:35:01;;;;;;;13.13;9.20;;;;;;;11.63;100.00;96703.81;1041027;28;20029;-74
2021/09/02 01:35:32;;;;;;;16.90;9.57;;;;;;;11.62;100.00;96700.34;1040500;28;20022;-74
2021/09/02 01:36:02;;;;;;;15.00;10.30;;;;;;;11.64;100.00;96702.75;1036567;28;20065;-75
2021/09/02 01:36:33;;;;;;;13.33;9.30;;;;;;;11.62;100.00;96703.03;1036575;28;20033;-74
2021/09/02 01:37:03;;;;;;;16.63;10.33;;;;;;;11.64;100.00;96703.56;1036640;28;20135;-74
2021/09/02 01:37:50;;;;;;;15.23;9.97;;;;;;;11.65;100.00;96697.13;1040650;28;20056;-75
2021/09/02 01:38:21;;;;;;;14.55;10.00;;;;;;;11.66;100.00;96697.94;1040885;28;20021;-75
2021/09/02 01:38:51;;;;;;;15.93;10.40;;;;;;;11.66;100.00;96697.94;1040615;28;20025;-74
2021/09/02 01:39:21;;;;;;;14.90;9.90;;;;;;;11.70;100.00;96702.50;1040691;28;20033;-74
2021/09/02 01:39:52;;;;;;;13.87;10.13;;;;;;;11.73;100.00;96700.41;1036543;28;20026;-75
2021/09/02 01:40:35;;;;;;;14.43;10.07;;;;;;;11.73;100.00;96697.72;1037341;28;20415;-75
2021/09/02 01:41:05;;;;;;;16.50;10.50;;;;;;;11.65;100.00;96699.81;1042459;28;20577;-74
2021/09/02 01:41:36;;;;;;;15.33;10.13;;;;;;;11.65;100.00;96694.44;1044862;28;20032;-74
2021/09/02 01:42:11;;;;;;;15.33;10.00;;;;;;;11.68;100.00;96693.16;1040577;28;20036;-74
2021/09/02 01:42:41;;;;;;;19.38;10.50;;;;;;;11.72;100.00;96696.91;1040628;28;20485;-74
2021/09/02 01:43:13;;;;;;;16.40;10.20;;;;;;;11.71;100.00;96692.59;1036536;28;20022;-74
2021/09/02 01:43:44;;;;;;;14.70;10.43;;;;;;;11.69;100.00;96700.91;1029342;28;20037;-74
2021/09/02 01:44:14;;;;;;;16.20;10.10;;;;;;;11.66;100.00;96695.25;1028767;28;20526;-75
2021/09/02 01:44:44;;;;;;;17.43;9.83;;;;;;;11.65;100.00;96701.69;1032649;28;20026;-74
2021/09/02 01:45:15;;;;;;;18.53;10.23;;;;;;;11.60;100.00;96702.44;1036782;28;20026;-75
2021/09/02 01:45:45;;;;;;;14.13;10.30;;;;;;;11.61;100.00;96701.38;1040584;28;20029;-75
2021/09/02 01:46:16;;;;;;;15.40;10.90;;;;;;;11.60;100.00;96698.97;1040580;28;20026;-75
2021/09/02 01:46:46;;;;;;;16.00;10.80;;;;;;;11.57;100.00;96697.63;1036511;28;20017;-75
2021/09/02 01:47:20;;;;;;;17.60;10.97;;;;;;;11.53;100.00;96699.22;1032643;28;20018;-74
2021/09/02 01:47:51;;;;;;;17.25;10.50;;;;;;;11.51;100.00;96705.88;1036539;28;20022;-74
2021/09/02 01:48:21;;;;;;;15.90;10.70;;;;;;;11.45;100.00;96694.31;1033014;28;20472;-74
2021/09/02 01:48:53;;;;;;;13.37;9.90;;;;;;;11.45;100.00;96697.00;1033613;28;20030;-74
2021/09/02 01:49:24;;;;;;;15.07;10.55;;;;;;;11.40;100.00;96702.31;1040625;28;20068;-74
2021/09/02 01:49:54;;;;;;;16.17;11.23;;;;;;;11.32;100.00;96698.28;1036764;28;20053;-74
2021/09/02 01:50:25;;;;;;;16.30;9.93;;;;;;;11.31;100.00;96694.00;1032490;28;20026;-74
2021/09/02 01:50:55;;;;;;;19.00;10.47;;;;;;;11.30;100.00;96694.22;1036378;28;20076;-74
2021/09/02 01:51:26;;;;;;;18.43;10.70;;;;;;;11.29;100.00;96696.09;1036672;28;20252;-74
2021/09/02 01:51:56;;;;;;;15.77;10.27;;;;;;;11.25;100.00;96705.69;1040586;28;20022;-75
2021/09/02 01:52:27;;;;;;;14.07;10.20;;;;;;;11.21;100.00;96699.25;1044738;28;20554;-74
2021/09/02 01:52:58;;;;;;;21.03;10.53;;;;;;;11.19;100.00;96696.03;1036343;28;20044;-75
2021/09/02 01:53:28;;;;;;;16.80;10.23;;;;;;;11.16;100.00;96692.00;1032430;28;20052;-74
2021/09/02 01:53:59;;;;;;;17.57;10.17;;;;;;;11.16;100.00;96702.72;1024342;28;20090;-74
2021/09/02 01:54:29;;;;;;;13.43;10.00;;;;;;;11.13;100.00;96703.22;1024717;28;20031;-74
2021/09/02 01:55:00;;;;;;;16.27;10.20;;;;;;;11.11;100.00;96705.34;1028371;28;20035;-74
2021/09/02 01:55:31;;;;;;;16.45;10.00;;;;;;;11.11;100.00;96705.34;1032550;28;20041;-74
2021/09/02 01:56:01;;;;;;;18.90;10.57;;;;;;;11.11;100.00;96702.66;1036460;28;20048;-74
2021/09/02 01:56:32;;;;;;;13.37;9.80;;;;;;;11.10;100.00;96708.25;1036680;28;20534;-74
2021/09/02 01:57:05;;;;;;;14.63;10.67;;;;;;;11.06;100.00;96699.94;1040499;28;20026;-74
2021/09/02 01:57:36;;;;;;;16.60;11.52;;;;;;;11.02;100.00;96698.84;1036359;28;20087;-74
2021/09/02 01:58:06;;;;;;;19.83;10.77;;;;;;;11.00;100.00;96702.81;1028314;28;20019;-75
2021/09/02 01:58:37;;;;;;;16.00;11.37;;;;;;;10.99;100.00;96703.88;1024366;29;20027;-74
2021/09/02 01:59:07;;;;;;;19.20;10.83;;;;;;;10.97;100.00;96706.81;1028448;28;20019;-74
2021/09/02 01:59:38;;;;;;;15.97;11.20;;;;;;;10.96;100.00;96702.53;1032546;28;20022;-74
2021/09/02 02:00:09;;;;;;;18.07;11.50;;;;;;;10.96;100.00;96702.53;1036456;28;20018;-74
2021/09/02 02:00:40;;;;;;;15.85;10.40;;;;;;;10.94;100.00;96702.78;1037601;28;20057;-74
2021/09/02 02:01:10;;;;;;;15.70;10.07;;;;;;;10.92;100.00;96702.25;1040426;28;20513;-74
2021/09/02 02:01:41;;;;;;;16.27;11.30;;;;;;;10.93;100.00;96698.50;1040746;28;20482;-74
2021/09/02 02:02:11;;;;;;;16.23;11.37;;;;;;;10.86;100.00;96703.25;1040579;28;20029;-74
2021/09/02 02:02:42;;;;;;;17.97;10.80;;;;;;;10.89;100.00;96702.72;1036467;28;20033;-74
2021/09/02 02:03:12;;;;;;;15.37;10.80;;;;;;;10.88;100.00;96697.66;1040477;28;20029;-74
2021/09/02 02:03:43;;;;;;;17.07;10.73;;;;;;;10.87;100.00;96701.38;1036514;28;20033;-74
2021/09/02 02:04:13;;;;;;;15.43;10.70;;;;;;;10.85;100.00;96706.16;1040569;28;20585;-74
2021/09/02 02:04:44;;;;;;;17.97;11.23;;;;;;;10.82;100.00;96702.16;1040576;28;20038;-74
2021/09/02 02:05:14;;;;;;;17.17;11.07;;;;;;;10.79;100.00;96702.63;1040659;28;20026;-74
2021/09/02 02:05:44;;;;;;;16.67;10.93;;;;;;;10.74;100.00;96705.28;1040474;28;20107;-74
2021/09/02 02:06:15;;;;;;;20.07;11.27;;;;;;;10.76;100.00;96699.69;1036394;28;20041;-74
2021/09/02 02:06:45;;;;;;;17.00;11.23;;;;;;;10.73;100.00;96697.50;1036509;28;20033;-74
2021/09/02 02:07:16;;;;;;;18.07;11.33;;;;;;;10.70;100.00;96692.66;1032502;28;20041;-74
2021/09/02 02:07:46;;;;;;;20.57;10.93;;;;;;;10.68;100.00;96698.28;1036362;28;20033;-73
2021/09/02 02:08:17;;;;;;;15.13;10.40;;;;;;;10.66;100.00;96687.84;1040546;28;20049;-74
2021/09/02 02:08:47;;;;;;;16.60;10.87;;;;;;;10.64;100.00;96695.28;1040656;28;20028;-74
2021/09/02 02:09:17;;;;;;;14.50;10.17;;;;;;;10.60;100.00;96698.75;1044696;28;20504;-74
2021/09/02 02:09:48;;;;;;;13.57;10.20;;;;;;;10.55;100.00;96702.16;1044928;28;20058;-75
2021/09/02 02:10:22;;;;;;;16.80;10.73;;;;;;;10.55;100.00;96696.81;1048781;28;20058;-74
2021/09/02 02:10:53;;;;;;;16.98;10.43;;;;;;;10.53;100.00;96693.56;1037985;28;20506;-74
2021/09/02 02:11:23;;;;;;;14.90;10.43;;;;;;;10.51;100.00;96693.03;1036435;28;20041;-74
2021/09/02 02:11:53;;;;;;;20.27;11.07;;;;;;;10.55;100.00;96696.81;1036409;28;20025;-74
2021/09/02 02:12:24;;;;;;;17.03;10.27;;;;;;;10.57;100.00;96696.56;1033026;28;20026;-74
2021/09/02 02:12:55;;;;;;;15.10;10.90;;;;;;;10.54;100.00;96694.38;1040546;28;20052;-74
2021/09/02 02:13:25;;;;;;;13.82;10.48;;;;;;;10.53;100.00;96696.25;1036440;28;20025;-74
2021/09/02 02:13:56;;;;;;;16.97;10.30;;;;;;;10.47;100.00;96697.25;1036554;28;20446;-74
2021/09/02 02:14:26;;;;;;;16.57;10.13;;;;;;;10.47;100.00;96691.13;1036408;28;20022;-74
2021/09/02 02:14:57;;;;;;;13.37;10.33;;;;;;;10.47;100.00;96699.13;1032518;28;20475;-74
2021/09/02 02:15:27;;;;;;;15.93;9.87;;;;;;;10.46;100.00;96692.19;1037209;28;20021;-74
2021/09/02 02:15:57;;;;;;;16.13;9.87;;;;;;;10.47;100.00;96691.91;1036453;28;20026;-74
2021/09/02 02:16:28;;;;;;;16.17;9.93;;;;;;;10.45;100.00;96695.91;1040509;28;20475;-74
2021/09/02 02:16:58;;;;;;;15.00;9.93;;;;;;;10.43;100.00;96698.81;1040467;28;20059;-74
2021/09/02 02:17:29;;;;;;;15.20;10.50;;;;;;;10.44;100.00;96695.09;1036445;28;20088;-74
2021/09/02 02:17:59;;;;;;;13.33;10.00;;;;;;;10.45;100.00;96698.59;1040491;28;20101;-74
2021/09/02 02:18:30;;;;;;;15.20;9.73;;;;;;;10.45;100.00;96701.25;1036357;28;20101;-74
2021/09/02 02:19:00;;;;;;;13.50;9.43;;;;;;;10.43;100.00;96695.34;1036552;28;20026;-74
2021/09/02 02:19:30;;;;;;;13.43;9.83;;;;;;;10.41;100.00;96699.06;1036444;28;20028;-74
2021/09/02 02:20:01;;;;;;;14.77;9.67;;;;;;;10.42;100.00;96694.53;1036328;28;20026;-74
2021/09/02 02:20:31;;;;;;;15.33;10.10;;;;;;;10.43;100.00;96695.34;1036344;28;20033;-74
2021/09/02 02:21:02;;;;;;;18.83;10.80;;;;;;;10.42;100.00;96694.53;1036205;28;20684;-74
2021/09/02 02:21:32;;;;;;;15.37;10.10;;;;;;;10.40;100.00;96686.78;1032312;28;20022;-74